Heppner, South Dakota
Current Conditions -  °F | °C
As of 11:53 PM on Monday 20 Oct 2014 (Local Time) from KCUT Reporting Station
Clear Clear  
Wind Chill: 55°   Ceiling: Unl
Heat Index: 55°   Visibility: 10mi
Dew Point: 34°   Wind: 5mph
Humidity: 45%   Direction: 220°SW
Pressure: 30"   Gusts: NA
Location:  43.346°N, 103.483°W
Report Text: KCUT 210553Z AUTO 22004KT 10SM CLR 13/01 A3000 RMK AO2 SLP102 T01280011 10167 20083 58008
Loading
Personal Weather Stations






























Interactive Weather Map
Tropical Storm Tracking
New forecast layout! Learn more

10-Day Weather Forecast

Advertisements
Track Severe Weather on mobile